sensor_id;sensor_type;location;lat;lon;timestamp;P1;durP1;ratioP1;P2;durP2;ratioP2
49183;SDS011;35021;49.214;12.270;2023-07-09T00:01:54;4.03;;;3.58;;
49183;SDS011;35021;49.214;12.270;2023-07-09T00:04:21;4.55;;;3.97;;
49183;SDS011;35021;49.214;12.270;2023-07-09T00:06:48;4.25;;;3.78;;
49183;SDS011;35021;49.214;12.270;2023-07-09T00:09:20;5.38;;;4.13;;
49183;SDS011;35021;49.214;12.270;2023-07-09T00:11:47;4.32;;;3.78;;
49183;SDS011;35021;49.214;12.270;2023-07-09T00:14:16;4.75;;;3.65;;
49183;SDS011;35021;49.214;12.270;2023-07-09T00:16:44;4.63;;;4.05;;
49183;SDS011;35021;49.214;12.270;2023-07-09T00:19:16;4.40;;;4.00;;
49183;SDS011;35021;49.214;12.270;2023-07-09T00:21:45;5.50;;;4.30;;
49183;SDS011;35021;49.214;12.270;2023-07-09T00:24:15;5.07;;;3.90;;
49183;SDS011;35021;49.214;12.270;2023-07-09T00:26:42;4.82;;;3.92;;
49183;SDS011;35021;49.214;12.270;2023-07-09T00:29:12;4.38;;;3.90;;
49183;SDS011;35021;49.214;12.270;2023-07-09T00:31:39;4.85;;;4.10;;
49183;SDS011;35021;49.214;12.270;2023-07-09T00:34:08;4.90;;;4.10;;
49183;SDS011;35021;49.214;12.270;2023-07-09T00:36:39;5.30;;;4.00;;
49183;SDS011;35021;49.214;12.270;2023-07-09T00:39:17;4.35;;;3.95;;
49183;SDS011;35021;49.214;12.270;2023-07-09T00:41:48;4.80;;;4.30;;
49183;SDS011;35021;49.214;12.270;2023-07-09T00:49:26;4.88;;;4.30;;
49183;SDS011;35021;49.214;12.270;2023-07-09T00:52:05;3.90;;;3.45;;
49183;SDS011;35021;49.214;12.270;2023-07-09T00:54:51;4.18;;;3.65;;
49183;SDS011;35021;49.214;12.270;2023-07-09T00:57:19;5.10;;;4.22;;
49183;SDS011;35021;49.214;12.270;2023-07-09T00:59:50;4.50;;;3.95;;
49183;SDS011;35021;49.214;12.270;2023-07-09T01:02:27;4.55;;;3.95;;
49183;SDS011;35021;49.214;12.270;2023-07-09T01:04:57;4.40;;;3.90;;
49183;SDS011;35021;49.214;12.270;2023-07-09T01:07:28;4.22;;;3.72;;
49183;SDS011;35021;49.214;12.270;2023-07-09T01:09:56;4.28;;;3.88;;
49183;SDS011;35021;49.214;12.270;2023-07-09T01:12:22;5.18;;;4.32;;
49183;SDS011;35021;49.214;12.270;2023-07-09T01:14:51;5.32;;;4.38;;
49183;SDS011;35021;49.214;12.270;2023-07-09T01:17:21;4.35;;;3.95;;
49183;SDS011;35021;49.214;12.270;2023-07-09T01:19:49;4.32;;;3.88;;
49183;SDS011;35021;49.214;12.270;2023-07-09T01:22:18;5.28;;;3.97;;
49183;SDS011;35021;49.214;12.270;2023-07-09T01:24:50;4.45;;;4.05;;
49183;SDS011;35021;49.214;12.270;2023-07-09T01:27:33;4.78;;;3.83;;
49183;SDS011;35021;49.214;12.270;2023-07-09T01:30:04;5.97;;;4.45;;
49183;SDS011;35021;49.214;12.270;2023-07-09T01:32:36;6.03;;;4.55;;
49183;SDS011;35021;49.214;12.270;2023-07-09T01:35:05;5.55;;;3.70;;
49183;SDS011;35021;49.214;12.270;2023-07-09T01:37:34;4.97;;;4.22;;
49183;SDS011;35021;49.214;12.270;2023-07-09T01:40:03;4.25;;;3.85;;
49183;SDS011;35021;49.214;12.270;2023-07-09T01:42:45;4.93;;;4.20;;
49183;SDS011;35021;49.214;12.270;2023-07-09T01:45:13;4.78;;;4.20;;
49183;SDS011;35021;49.214;12.270;2023-07-09T01:47:40;4.80;;;4.30;;
49183;SDS011;35021;49.214;12.270;2023-07-09T01:50:09;5.35;;;4.45;;
49183;SDS011;35021;49.214;12.270;2023-07-09T01:52:38;4.53;;;4.13;;
49183;SDS011;35021;49.214;12.270;2023-07-09T01:55:10;4.40;;;3.67;;
49183;SDS011;35021;49.214;12.270;2023-07-09T01:57:39;5.30;;;4.40;;
49183;SDS011;35021;49.214;12.270;2023-07-09T02:00:08;5.30;;;3.90;;
49183;SDS011;35021;49.214;12.270;2023-07-09T02:02:42;4.65;;;4.18;;
49183;SDS011;35021;49.214;12.270;2023-07-09T02:05:13;4.75;;;4.25;;
49183;SDS011;35021;49.214;12.270;2023-07-09T02:07:42;4.75;;;4.28;;
49183;SDS011;35021;49.214;12.270;2023-07-09T02:10:10;6.22;;;4.93;;
49183;SDS011;35021;49.214;12.270;2023-07-09T02:12:37;4.97;;;4.20;;
49183;SDS011;35021;49.214;12.270;2023-07-09T02:15:05;6.28;;;5.03;;
49183;SDS011;35021;49.214;12.270;2023-07-09T02:17:32;4.53;;;4.10;;
49183;SDS011;35021;49.214;12.270;2023-07-09T02:19:59;5.20;;;4.40;;
49183;SDS011;35021;49.214;12.270;2023-07-09T02:22:26;4.85;;;4.10;;
49183;SDS011;35021;49.214;12.270;2023-07-09T02:24:53;5.22;;;4.43;;
49183;SDS011;35021;49.214;12.270;2023-07-09T02:27:20;6.03;;;4.30;;
49183;SDS011;35021;49.214;12.270;2023-07-09T02:29:48;4.47;;;4.07;;
49183;SDS011;35021;49.214;12.270;2023-07-09T02:32:19;4.57;;;4.18;;
49183;SDS011;35021;49.214;12.270;2023-07-09T02:34:48;5.90;;;4.65;;
49183;SDS011;35021;49.214;12.270;2023-07-09T02:37:16;4.60;;;4.10;;
49183;SDS011;35021;49.214;12.270;2023-07-09T02:39:45;4.28;;;3.88;;
49183;SDS011;35021;49.214;12.270;2023-07-09T02:42:13;4.82;;;4.22;;
49183;SDS011;35021;49.214;12.270;2023-07-09T02:44:41;4.38;;;3.60;;
49183;SDS011;35021;49.214;12.270;2023-07-09T02:47:09;5.35;;;4.32;;
49183;SDS011;35021;49.214;12.270;2023-07-09T02:49:36;4.82;;;3.90;;
49183;SDS011;35021;49.214;12.270;2023-07-09T02:52:04;5.20;;;4.70;;
49183;SDS011;35021;49.214;12.270;2023-07-09T02:54:31;5.18;;;4.68;;
49183;SDS011;35021;49.214;12.270;2023-07-09T02:56:58;4.65;;;4.18;;
49183;SDS011;35021;49.214;12.270;2023-07-09T02:59:25;5.07;;;4.38;;
49183;SDS011;35021;49.214;12.270;2023-07-09T03:01:53;4.80;;;4.30;;
49183;SDS011;35021;49.214;12.270;2023-07-09T03:04:20;4.57;;;4.10;;
49183;SDS011;35021;49.214;12.270;2023-07-09T03:06:47;6.05;;;4.50;;
49183;SDS011;35021;49.214;12.270;2023-07-09T03:09:14;4.63;;;4.20;;
49183;SDS011;35021;49.214;12.270;2023-07-09T03:11:41;4.68;;;3.85;;
49183;SDS011;35021;49.214;12.270;2023-07-09T03:14:08;5.03;;;4.30;;
49183;SDS011;35021;49.214;12.270;2023-07-09T03:16:35;4.20;;;3.80;;
49183;SDS011;35021;49.214;12.270;2023-07-09T03:19:02;5.28;;;4.78;;
49183;SDS011;35021;49.214;12.270;2023-07-09T03:21:31;4.80;;;4.30;;
49183;SDS011;35021;49.214;12.270;2023-07-09T03:23:58;5.68;;;4.60;;
49183;SDS011;35021;49.214;12.270;2023-07-09T03:26:26;5.97;;;4.38;;
49183;SDS011;35021;49.214;12.270;2023-07-09T03:28:53;4.70;;;4.10;;
49183;SDS011;35021;49.214;12.270;2023-07-09T03:31:20;4.80;;;4.00;;
49183;SDS011;35021;49.214;12.270;2023-07-09T03:33:48;4.80;;;4.20;;
49183;SDS011;35021;49.214;12.270;2023-07-09T03:36:16;4.47;;;4.07;;
49183;SDS011;35021;49.214;12.270;2023-07-09T03:38:46;5.07;;;4.57;;
49183;SDS011;35021;49.214;12.270;2023-07-09T03:41:13;4.50;;;4.10;;
49183;SDS011;35021;49.214;12.270;2023-07-09T03:43:41;4.82;;;4.32;;
49183;SDS011;35021;49.214;12.270;2023-07-09T03:46:08;5.78;;;4.68;;
49183;SDS011;35021;49.214;12.270;2023-07-09T03:48:34;5.57;;;4.10;;
49183;SDS011;35021;49.214;12.270;2023-07-09T03:51:02;5.30;;;4.18;;
49183;SDS011;35021;49.214;12.270;2023-07-09T03:53:28;4.50;;;4.10;;
49183;SDS011;35021;49.214;12.270;2023-07-09T03:55:55;4.85;;;4.28;;
49183;SDS011;35021;49.214;12.270;2023-07-09T03:58:23;4.18;;;3.78;;
49183;SDS011;35021;49.214;12.270;2023-07-09T04:00:51;4.47;;;4.00;;
49183;SDS011;35021;49.214;12.270;2023-07-09T04:03:21;6.43;;;4.50;;
49183;SDS011;35021;49.214;12.270;2023-07-09T04:05:49;4.13;;;3.72;;
49183;SDS011;35021;49.214;12.270;2023-07-09T04:08:16;5.00;;;4.20;;
49183;SDS011;35021;49.214;12.270;2023-07-09T04:10:43;4.00;;;3.60;;
49183;SDS011;35021;49.214;12.270;2023-07-09T04:13:10;5.85;;;4.53;;
49183;SDS011;35021;49.214;12.270;2023-07-09T04:15:37;4.80;;;4.30;;
49183;SDS011;35021;49.214;12.270;2023-07-09T04:18:04;5.18;;;4.68;;
49183;SDS011;35021;49.214;12.270;2023-07-09T04:20:32;4.78;;;4.28;;
49183;SDS011;35021;49.214;12.270;2023-07-09T04:23:01;6.13;;;4.80;;
49183;SDS011;35021;49.214;12.270;2023-07-09T04:25:28;4.57;;;4.07;;
49183;SDS011;35021;49.214;12.270;2023-07-09T04:27:55;4.43;;;4.03;;
49183;SDS011;35021;49.214;12.270;2023-07-09T04:30:23;5.78;;;4.40;;
49183;SDS011;35021;49.214;12.270;2023-07-09T04:32:50;5.45;;;4.20;;
49183;SDS011;35021;49.214;12.270;2023-07-09T04:35:17;5.88;;;4.40;;
49183;SDS011;35021;49.214;12.270;2023-07-09T04:37:44;5.50;;;4.80;;
49183;SDS011;35021;49.214;12.270;2023-07-09T04:40:11;4.40;;;4.00;;
49183;SDS011;35021;49.214;12.270;2023-07-09T04:42:39;5.85;;;4.40;;
49183;SDS011;35021;49.214;12.270;2023-07-09T04:45:07;5.13;;;4.60;;
49183;SDS011;35021;49.214;12.270;2023-07-09T04:47:36;4.80;;;4.30;;
49183;SDS011;35021;49.214;12.270;2023-07-09T04:50:07;4.97;;;4.25;;
49183;SDS011;35021;49.214;12.270;2023-07-09T04:52:34;5.60;;;5.00;;
49183;SDS011;35021;49.214;12.270;2023-07-09T04:55:01;5.25;;;4.65;;
49183;SDS011;35021;49.214;12.270;2023-07-09T04:57:28;4.95;;;4.45;;
49183;SDS011;35021;49.214;12.270;2023-07-09T04:59:55;4.78;;;4.07;;
49183;SDS011;35021;49.214;12.270;2023-07-09T05:02:22;4.97;;;4.47;;
49183;SDS011;35021;49.214;12.270;2023-07-09T05:04:50;5.05;;;4.53;;
49183;SDS011;35021;49.214;12.270;2023-07-09T05:07:17;6.63;;;4.75;;
49183;SDS011;35021;49.214;12.270;2023-07-09T05:09:43;4.55;;;4.10;;
49183;SDS011;35021;49.214;12.270;2023-07-09T05:12:10;7.15;;;4.50;;
49183;SDS011;35021;49.214;12.270;2023-07-09T05:14:37;5.32;;;4.80;;
49183;SDS011;35021;49.214;12.270;2023-07-09T05:17:05;5.28;;;4.35;;
49183;SDS011;35021;49.214;12.270;2023-07-09T05:19:32;5.22;;;4.70;;
49183;SDS011;35021;49.214;12.270;2023-07-09T05:22:00;4.50;;;4.10;;
49183;SDS011;35021;49.214;12.270;2023-07-09T05:24:27;5.22;;;4.72;;
49183;SDS011;35021;49.214;12.270;2023-07-09T05:26:54;6.18;;;4.45;;
49183;SDS011;35021;49.214;12.270;2023-07-09T05:29:22;4.65;;;4.15;;
49183;SDS011;35021;49.214;12.270;2023-07-09T05:31:49;5.90;;;4.65;;
49183;SDS011;35021;49.214;12.270;2023-07-09T05:34:16;5.10;;;4.45;;
49183;SDS011;35021;49.214;12.270;2023-07-09T05:36:43;6.70;;;4.90;;
49183;SDS011;35021;49.214;12.270;2023-07-09T05:39:11;4.93;;;4.43;;
49183;SDS011;35021;49.214;12.270;2023-07-09T05:41:38;4.70;;;4.20;;
49183;SDS011;35021;49.214;12.270;2023-07-09T05:44:05;6.38;;;4.57;;
49183;SDS011;35021;49.214;12.270;2023-07-09T05:46:34;5.00;;;4.50;;
49183;SDS011;35021;49.214;12.270;2023-07-09T05:49:05;5.22;;;4.72;;
49183;SDS011;35021;49.214;12.270;2023-07-09T05:51:32;5.03;;;4.53;;
49183;SDS011;35021;49.214;12.270;2023-07-09T05:54:00;4.75;;;4.30;;
49183;SDS011;35021;49.214;12.270;2023-07-09T05:56:27;4.95;;;4.35;;
49183;SDS011;35021;49.214;12.270;2023-07-09T05:58:55;6.43;;;4.70;;
49183;SDS011;35021;49.214;12.270;2023-07-09T06:01:23;4.68;;;4.00;;
49183;SDS011;35021;49.214;12.270;2023-07-09T06:03:50;5.32;;;4.65;;
49183;SDS011;35021;49.214;12.270;2023-07-09T06:06:17;4.93;;;4.40;;
49183;SDS011;35021;49.214;12.270;2023-07-09T06:08:44;7.25;;;4.80;;
49183;SDS011;35021;49.214;12.270;2023-07-09T06:11:13;6.22;;;4.50;;
49183;SDS011;35021;49.214;12.270;2023-07-09T06:13:40;5.18;;;4.68;;
49183;SDS011;35021;49.214;12.270;2023-07-09T06:16:07;6.32;;;4.38;;
49183;SDS011;35021;49.214;12.270;2023-07-09T06:18:35;6.32;;;4.90;;
49183;SDS011;35021;49.214;12.270;2023-07-09T06:21:02;5.85;;;5.25;;
49183;SDS011;35021;49.214;12.270;2023-07-09T06:23:30;4.78;;;4.38;;
49183;SDS011;35021;49.214;12.270;2023-07-09T06:25:57;5.65;;;4.47;;
49183;SDS011;35021;49.214;12.270;2023-07-09T06:28:25;5.53;;;4.47;;
49183;SDS011;35021;49.214;12.270;2023-07-09T06:30:55;5.97;;;4.85;;
49183;SDS011;35021;49.214;12.270;2023-07-09T06:33:23;4.78;;;4.28;;
49183;SDS011;35021;49.214;12.270;2023-07-09T06:35:57;5.13;;;4.50;;
49183;SDS011;35021;49.214;12.270;2023-07-09T06:38:27;4.75;;;4.15;;
49183;SDS011;35021;49.214;12.270;2023-07-09T06:40:56;7.10;;;4.80;;
49183;SDS011;35021;49.214;12.270;2023-07-09T06:43:23;6.00;;;4.43;;
49183;SDS011;35021;49.214;12.270;2023-07-09T06:45:55;5.43;;;4.65;;
49183;SDS011;35021;49.214;12.270;2023-07-09T06:48:24;5.40;;;4.50;;
49183;SDS011;35021;49.214;12.270;2023-07-09T06:50:53;5.63;;;4.63;;
49183;SDS011;35021;49.214;12.270;2023-07-09T06:53:21;6.38;;;4.32;;
49183;SDS011;35021;49.214;12.270;2023-07-09T06:55:49;6.90;;;5.25;;
49183;SDS011;35021;49.214;12.270;2023-07-09T06:58:16;5.18;;;4.20;;
49183;SDS011;35021;49.214;12.270;2023-07-09T07:00:44;4.70;;;4.10;;
49183;SDS011;35021;49.214;12.270;2023-07-09T07:03:12;5.22;;;4.43;;
49183;SDS011;35021;49.214;12.270;2023-07-09T07:05:43;4.88;;;4.00;;
49183;SDS011;35021;49.214;12.270;2023-07-09T07:08:13;6.38;;;5.00;;
49183;SDS011;35021;49.214;12.270;2023-07-09T07:10:41;5.55;;;4.40;;
49183;SDS011;35021;49.214;12.270;2023-07-09T07:13:10;5.20;;;4.30;;
49183;SDS011;35021;49.214;12.270;2023-07-09T07:15:37;6.25;;;4.32;;
49183;SDS011;35021;49.214;12.270;2023-07-09T07:18:04;5.78;;;4.22;;
49183;SDS011;35021;49.214;12.270;2023-07-09T07:20:33;5.28;;;4.75;;
49183;SDS011;35021;49.214;12.270;2023-07-09T07:23:00;5.28;;;4.78;;
49183;SDS011;35021;49.214;12.270;2023-07-09T07:25:27;5.18;;;4.68;;
49183;SDS011;35021;49.214;12.270;2023-07-09T07:27:54;5.53;;;4.05;;
49183;SDS011;35021;49.214;12.270;2023-07-09T07:30:21;4.72;;;4.00;;
49183;SDS011;35021;49.214;12.270;2023-07-09T07:32:51;5.38;;;4.88;;
49183;SDS011;35021;49.214;12.270;2023-07-09T07:35:18;5.03;;;4.47;;
49183;SDS011;35021;49.214;12.270;2023-07-09T07:37:45;4.97;;;4.18;;
49183;SDS011;35021;49.214;12.270;2023-07-09T07:40:12;5.18;;;4.32;;
49183;SDS011;35021;49.214;12.270;2023-07-09T07:42:40;4.82;;;4.10;;
49183;SDS011;35021;49.214;12.270;2023-07-09T07:45:07;4.60;;;4.10;;
49183;SDS011;35021;49.214;12.270;2023-07-09T07:47:34;4.15;;;3.75;;
49183;SDS011;35021;49.214;12.270;2023-07-09T07:50:04;4.63;;;4.13;;
49183;SDS011;35021;49.214;12.270;2023-07-09T07:52:32;9.45;;;3.55;;
49183;SDS011;35021;49.214;12.270;2023-07-09T07:54:59;4.65;;;3.83;;
49183;SDS011;35021;49.214;12.270;2023-07-09T07:57:27;5.05;;;3.95;;
49183;SDS011;35021;49.214;12.270;2023-07-09T07:59:54;10.73;;;4.25;;
49183;SDS011;35021;49.214;12.270;2023-07-09T08:02:24;3.80;;;3.40;;
49183;SDS011;35021;49.214;12.270;2023-07-09T08:04:51;4.10;;;3.70;;
49183;SDS011;35021;49.214;12.270;2023-07-09T08:07:18;5.28;;;4.13;;
49183;SDS011;35021;49.214;12.270;2023-07-09T08:09:45;663.80;;;69.03;;
49183;SDS011;35021;49.214;12.270;2023-07-09T08:12:13;345.05;;;41.25;;
49183;SDS011;35021;49.214;12.270;2023-07-09T08:14:42;528.67;;;65.65;;
49183;SDS011;35021;49.214;12.270;2023-07-09T08:17:11;502.55;;;60.38;;
49183;SDS011;35021;49.214;12.270;2023-07-09T08:20:11;424.73;;;51.92;;
49183;SDS011;35021;49.214;12.270;2023-07-09T08:22:31;448.98;;;53.38;;
49183;SDS011;35021;49.214;12.270;2023-07-09T08:24:58;421.33;;;49.60;;
49183;SDS011;35021;49.214;12.270;2023-07-09T08:27:25;360.08;;;46.75;;
49183;SDS011;35021;49.214;12.270;2023-07-09T08:29:52;393.35;;;46.30;;
49183;SDS011;35021;49.214;12.270;2023-07-09T08:32:18;376.50;;;42.38;;
49183;SDS011;35021;49.214;12.270;2023-07-09T08:34:45;329.98;;;42.63;;
49183;SDS011;35021;49.214;12.270;2023-07-09T08:37:32;331.40;;;38.88;;
49183;SDS011;35021;49.214;12.270;2023-07-09T08:39:59;307.75;;;41.28;;
49183;SDS011;35021;49.214;12.270;2023-07-09T08:42:29;292.00;;;38.53;;
49183;SDS011;35021;49.214;12.270;2023-07-09T08:45:20;266.35;;;35.83;;
49183;SDS011;35021;49.214;12.270;2023-07-09T08:48:13;275.02;;;37.45;;
49183;SDS011;35021;49.214;12.270;2023-07-09T08:50:53;248.95;;;33.03;;
49183;SDS011;35021;49.214;12.270;2023-07-09T08:53:44;241.40;;;34.67;;
49183;SDS011;35021;49.214;12.270;2023-07-09T08:56:16;228.25;;;29.40;;
49183;SDS011;35021;49.214;12.270;2023-07-09T08:58:43;204.23;;;26.48;;
49183;SDS011;35021;49.214;12.270;2023-07-09T09:01:20;184.07;;;27.20;;
49183;SDS011;35021;49.214;12.270;2023-07-09T09:04:00;177.10;;;26.38;;
49183;SDS011;35021;49.214;12.270;2023-07-09T09:06:51;153.93;;;23.63;;
49183;SDS011;35021;49.214;12.270;2023-07-09T09:09:28;179.02;;;26.55;;
49183;SDS011;35021;49.214;12.270;2023-07-09T09:12:12;163.88;;;25.38;;
49183;SDS011;35021;49.214;12.270;2023-07-09T09:14:44;148.15;;;22.83;;
49183;SDS011;35021;49.214;12.270;2023-07-09T09:17:23;118.95;;;20.92;;
49183;SDS011;35021;49.214;12.270;2023-07-09T09:19:59;138.10;;;21.05;;
49183;SDS011;35021;49.214;12.270;2023-07-09T09:22:33;113.60;;;19.88;;
49183;SDS011;35021;49.214;12.270;2023-07-09T09:25:22;108.18;;;19.25;;
49183;SDS011;35021;49.214;12.270;2023-07-09T09:27:53;94.47;;;16.45;;
49183;SDS011;35021;49.214;12.270;2023-07-09T09:30:22;98.25;;;15.93;;
49183;SDS011;35021;49.214;12.270;2023-07-09T09:32:53;85.65;;;13.85;;
49183;SDS011;35021;49.214;12.270;2023-07-09T09:35:26;84.32;;;14.82;;
49183;SDS011;35021;49.214;12.270;2023-07-09T09:38:11;69.15;;;14.20;;
49183;SDS011;35021;49.214;12.270;2023-07-09T09:40:39;77.60;;;15.10;;
49183;SDS011;35021;49.214;12.270;2023-07-09T09:43:17;68.18;;;12.48;;
49183;SDS011;35021;49.214;12.270;2023-07-09T09:45:48;59.20;;;12.88;;
49183;SDS011;35021;49.214;12.270;2023-07-09T09:48:17;64.03;;;12.90;;
49183;SDS011;35021;49.214;12.270;2023-07-09T09:50:47;53.45;;;11.65;;
49183;SDS011;35021;49.214;12.270;2023-07-09T09:53:21;55.25;;;11.60;;
49183;SDS011;35021;49.214;12.270;2023-07-09T09:55:51;55.85;;;12.88;;
49183;SDS011;35021;49.214;12.270;2023-07-09T09:58:20;38.55;;;10.13;;
49183;SDS011;35021;49.214;12.270;2023-07-09T10:00:52;46.83;;;9.90;;
49183;SDS011;35021;49.214;12.270;2023-07-09T10:03:21;37.50;;;9.27;;
49183;SDS011;35021;49.214;12.270;2023-07-09T10:06:01;37.13;;;8.50;;
49183;SDS011;35021;49.214;12.270;2023-07-09T10:11:23;34.30;;;8.77;;
49183;SDS011;35021;49.214;12.270;2023-07-09T10:13:52;29.67;;;8.73;;
49183;SDS011;35021;49.214;12.270;2023-07-09T10:16:29;32.72;;;8.63;;
49183;SDS011;35021;49.214;12.270;2023-07-09T10:19:05;29.92;;;7.75;;
49183;SDS011;35021;49.214;12.270;2023-07-09T10:21:56;31.95;;;8.13;;
49183;SDS011;35021;49.214;12.270;2023-07-09T10:27:16;25.40;;;7.38;;
49183;SDS011;35021;49.214;12.270;2023-07-09T10:30:02;21.38;;;6.60;;
49183;SDS011;35021;49.214;12.270;2023-07-09T10:35:27;23.20;;;5.97;;
49183;SDS011;35021;49.214;12.270;2023-07-09T10:41:11;15.93;;;5.72;;
49183;SDS011;35021;49.214;12.270;2023-07-09T10:43:54;15.43;;;5.35;;
49183;SDS011;35021;49.214;12.270;2023-07-09T10:46:32;16.20;;;6.00;;
49183;SDS011;35021;49.214;12.270;2023-07-09T10:49:03;17.98;;;5.57;;
49183;SDS011;35021;49.214;12.270;2023-07-09T10:51:37;15.07;;;5.43;;
49183;SDS011;35021;49.214;12.270;2023-07-09T10:57:10;13.38;;;5.55;;
49183;SDS011;35021;49.214;12.270;2023-07-09T10:59:43;15.00;;;4.50;;
49183;SDS011;35021;49.214;12.270;2023-07-09T11:04:57;9.88;;;4.55;;
49183;SDS011;35021;49.214;12.270;2023-07-09T11:07:38;9.70;;;4.32;;
49183;SDS011;35021;49.214;12.270;2023-07-09T11:10:20;9.38;;;4.45;;
49183;SDS011;35021;49.214;12.270;2023-07-09T11:13:11;8.48;;;4.65;;
49183;SDS011;35021;49.214;12.270;2023-07-09T11:15:43;8.23;;;4.00;;
49183;SDS011;35021;49.214;12.270;2023-07-09T11:18:24;10.55;;;3.95;;
49183;SDS011;35021;49.214;12.270;2023-07-09T11:21:03;8.43;;;3.65;;
49183;SDS011;35021;49.214;12.270;2023-07-09T11:23:46;9.60;;;4.40;;
49183;SDS011;35021;49.214;12.270;2023-07-09T11:26:27;15.13;;;4.57;;
49183;SDS011;35021;49.214;12.270;2023-07-09T11:29:09;11.63;;;4.72;;
49183;SDS011;35021;49.214;12.270;2023-07-09T11:31:45;9.18;;;4.28;;
49183;SDS011;35021;49.214;12.270;2023-07-09T11:36:51;13.73;;;4.65;;
49183;SDS011;35021;49.214;12.270;2023-07-09T11:39:29;8.95;;;3.85;;
49183;SDS011;35021;49.214;12.270;2023-07-09T11:42:00;7.30;;;4.28;;
49183;SDS011;35021;49.214;12.270;2023-07-09T11:44:32;5.05;;;3.45;;
49183;SDS011;35021;49.214;12.270;2023-07-09T11:49:43;11.60;;;4.40;;
49183;SDS011;35021;49.214;12.270;2023-07-09T11:52:17;8.13;;;3.95;;
49183;SDS011;35021;49.214;12.270;2023-07-09T11:54:51;7.82;;;4.07;;
49183;SDS011;35021;49.214;12.270;2023-07-09T11:57:17;6.45;;;4.05;;
49183;SDS011;35021;49.214;12.270;2023-07-09T11:59:44;5.78;;;3.50;;
49183;SDS011;35021;49.214;12.270;2023-07-09T12:02:14;5.70;;;3.58;;
49183;SDS011;35021;49.214;12.270;2023-07-09T12:04:44;4.95;;;3.55;;
49183;SDS011;35021;49.214;12.270;2023-07-09T12:07:16;6.50;;;4.13;;
49183;SDS011;35021;49.214;12.270;2023-07-09T12:09:46;6.45;;;4.22;;
49183;SDS011;35021;49.214;12.270;2023-07-09T12:12:19;5.30;;;4.00;;
49183;SDS011;35021;49.214;12.270;2023-07-09T12:14:52;6.07;;;3.67;;
49183;SDS011;35021;49.214;12.270;2023-07-09T12:17:26;6.43;;;3.50;;
49183;SDS011;35021;49.214;12.270;2023-07-09T12:19:55;4.85;;;3.67;;
49183;SDS011;35021;49.214;12.270;2023-07-09T12:22:22;5.03;;;3.40;;
49183;SDS011;35021;49.214;12.270;2023-07-09T12:24:49;5.13;;;3.67;;
49183;SDS011;35021;49.214;12.270;2023-07-09T12:27:18;5.22;;;3.58;;
49183;SDS011;35021;49.214;12.270;2023-07-09T12:29:54;6.07;;;3.30;;
49183;SDS011;35021;49.214;12.270;2023-07-09T12:32:23;5.55;;;3.53;;
49183;SDS011;35021;49.214;12.270;2023-07-09T12:34:54;9.43;;;3.85;;
49183;SDS011;35021;49.214;12.270;2023-07-09T12:37:22;6.60;;;3.20;;
49183;SDS011;35021;49.214;12.270;2023-07-09T12:39:51;4.05;;;3.13;;
49183;SDS011;35021;49.214;12.270;2023-07-09T12:42:21;4.65;;;3.10;;
49183;SDS011;35021;49.214;12.270;2023-07-09T12:44:54;5.10;;;3.80;;
49183;SDS011;35021;49.214;12.270;2023-07-09T12:47:21;5.38;;;3.42;;
49183;SDS011;35021;49.214;12.270;2023-07-09T12:49:51;4.75;;;3.05;;
49183;SDS011;35021;49.214;12.270;2023-07-09T12:52:26;3.17;;;2.80;;
49183;SDS011;35021;49.214;12.270;2023-07-09T12:57:24;7.40;;;3.63;;
49183;SDS011;35021;49.214;12.270;2023-07-09T12:59:53;4.45;;;3.50;;
49183;SDS011;35021;49.214;12.270;2023-07-09T13:02:25;6.63;;;3.58;;
49183;SDS011;35021;49.214;12.270;2023-07-09T13:05:01;4.20;;;3.05;;
49183;SDS011;35021;49.214;12.270;2023-07-09T13:07:32;4.68;;;2.97;;
49183;SDS011;35021;49.214;12.270;2023-07-09T13:10:22;6.78;;;3.40;;
49183;SDS011;35021;49.214;12.270;2023-07-09T13:12:57;3.90;;;2.78;;
49183;SDS011;35021;49.214;12.270;2023-07-09T13:15:30;5.63;;;3.20;;
49183;SDS011;35021;49.214;12.270;2023-07-09T13:18:05;3.97;;;2.83;;
49183;SDS011;35021;49.214;12.270;2023-07-09T13:20:34;3.97;;;3.22;;
49183;SDS011;35021;49.214;12.270;2023-07-09T13:23:20;3.90;;;3.33;;
49183;SDS011;35021;49.214;12.270;2023-07-09T13:25:50;3.78;;;3.15;;
49183;SDS011;35021;49.214;12.270;2023-07-09T13:30:47;4.63;;;3.15;;
49183;SDS011;35021;49.214;12.270;2023-07-09T13:33:16;3.75;;;3.17;;
49183;SDS011;35021;49.214;12.270;2023-07-09T13:35:44;6.53;;;3.53;;
49183;SDS011;35021;49.214;12.270;2023-07-09T13:38:13;5.35;;;2.90;;
49183;SDS011;35021;49.214;12.270;2023-07-09T13:40:42;4.03;;;2.97;;
49183;SDS011;35021;49.214;12.270;2023-07-09T13:43:14;3.85;;;2.90;;
49183;SDS011;35021;49.214;12.270;2023-07-09T13:45:42;3.65;;;2.72;;
49183;SDS011;35021;49.214;12.270;2023-07-09T13:48:16;4.80;;;2.90;;
49183;SDS011;35021;49.214;12.270;2023-07-09T13:50:45;3.10;;;2.80;;
49183;SDS011;35021;49.214;12.270;2023-07-09T13:53:15;5.22;;;3.13;;
49183;SDS011;35021;49.214;12.270;2023-07-09T13:55:45;4.07;;;2.90;;
49183;SDS011;35021;49.214;12.270;2023-07-09T13:58:13;3.97;;;3.00;;
49183;SDS011;35021;49.214;12.270;2023-07-09T14:00:44;3.58;;;2.88;;
49183;SDS011;35021;49.214;12.270;2023-07-09T14:03:14;5.65;;;3.13;;
49183;SDS011;35021;49.214;12.270;2023-07-09T14:05:49;3.97;;;3.15;;
49183;SDS011;35021;49.214;12.270;2023-07-09T14:08:17;3.63;;;2.80;;
49183;SDS011;35021;49.214;12.270;2023-07-09T14:10:46;3.70;;;2.45;;
49183;SDS011;35021;49.214;12.270;2023-07-09T14:13:17;3.97;;;3.10;;
49183;SDS011;35021;49.214;12.270;2023-07-09T14:15:46;3.88;;;2.80;;
49183;SDS011;35021;49.214;12.270;2023-07-09T14:18:14;3.55;;;2.85;;
49183;SDS011;35021;49.214;12.270;2023-07-09T14:20:43;4.50;;;2.80;;
49183;SDS011;35021;49.214;12.270;2023-07-09T14:23:11;3.10;;;2.67;;
49183;SDS011;35021;49.214;12.270;2023-07-09T14:25:39;3.80;;;3.05;;
49183;SDS011;35021;49.214;12.270;2023-07-09T14:28:12;3.78;;;3.08;;
49183;SDS011;35021;49.214;12.270;2023-07-09T14:30:41;2.67;;;2.25;;
49183;SDS011;35021;49.214;12.270;2023-07-09T14:33:17;4.22;;;2.90;;
49183;SDS011;35021;49.214;12.270;2023-07-09T14:35:46;3.33;;;2.80;;
49183;SDS011;35021;49.214;12.270;2023-07-09T14:38:22;3.30;;;2.83;;
49183;SDS011;35021;49.214;12.270;2023-07-09T14:40:51;6.60;;;3.00;;
49183;SDS011;35021;49.214;12.270;2023-07-09T14:43:20;3.15;;;2.83;;
49183;SDS011;35021;49.214;12.270;2023-07-09T14:45:48;3.55;;;2.40;;
49183;SDS011;35021;49.214;12.270;2023-07-09T14:48:19;3.55;;;2.58;;
49183;SDS011;35021;49.214;12.270;2023-07-09T14:50:47;3.22;;;2.70;;
49183;SDS011;35021;49.214;12.270;2023-07-09T14:53:25;2.90;;;2.60;;
49183;SDS011;35021;49.214;12.270;2023-07-09T14:55:54;3.17;;;2.45;;
49183;SDS011;35021;49.214;12.270;2023-07-09T14:58:21;3.20;;;2.53;;
49183;SDS011;35021;49.214;12.270;2023-07-09T15:00:50;3.85;;;2.80;;
49183;SDS011;35021;49.214;12.270;2023-07-09T15:03:19;3.30;;;2.65;;
49183;SDS011;35021;49.214;12.270;2023-07-09T15:05:47;4.10;;;2.88;;
49183;SDS011;35021;49.214;12.270;2023-07-09T15:08:19;3.58;;;2.90;;
49183;SDS011;35021;49.214;12.270;2023-07-09T15:10:51;3.23;;;2.77;;
49183;SDS011;35021;49.214;12.270;2023-07-09T15:13:26;3.50;;;2.85;;
49183;SDS011;35021;49.214;12.270;2023-07-09T15:15:53;3.17;;;2.60;;
49183;SDS011;35021;49.214;12.270;2023-07-09T15:18:20;2.70;;;2.40;;
49183;SDS011;35021;49.214;12.270;2023-07-09T15:20:51;3.08;;;2.47;;